Time;durP1;ratioP1;P1;durP2;ratioP2;P2;SDS_P1;SDS_P2;PMS_P1;PMS_P2;Temp;Humidity;BMP_temperature;BMP_pressure;BME280_temperature;BME280_humidity;BME280_pressure;Samples;Min_cycle;Max_cycle;Signal;HPM_P1;HPM_P2
2022/02/24 00:00:27;;;;;;;0.50;0.50;;;;;;;;;;5011691;28;20795;-63
2022/02/24 00:02:53;;;;;;;0.57;0.57;;;;;;;;;;5011888;28;20169;-63
2022/02/24 00:05:19;;;;;;;0.50;0.50;;;;;;;;;;5011606;28;20463;-63
2022/02/24 00:07:45;;;;;;;0.60;0.60;;;;;;;;;;5011927;28;20189;-63
2022/02/24 00:10:13;;;;;;;0.60;0.60;;;;;;;;;;5011584;28;20419;-63
2022/02/24 00:12:39;;;;;;;0.50;0.50;;;;;;;;;;5011918;28;20538;-62
2022/02/24 00:15:06;;;;;;;0.50;0.50;;;;;;;;;;5011624;28;20212;-63
2022/02/24 00:17:33;;;;;;;0.60;0.60;;;;;;;;;;5011751;28;20168;-63
2022/02/24 00:19:59;;;;;;;0.60;0.60;;;;;;;;;;5011678;28;20173;-63
2022/02/24 00:22:25;;;;;;;0.70;0.70;;;;;;;;;;5011528;28;20207;-63
2022/02/24 00:24:51;;;;;;;0.68;0.68;;;;;;;;;;5011666;28;20197;-63
2022/02/24 00:27:17;;;;;;;0.70;0.70;;;;;;;;;;5011645;28;20637;-63
2022/02/24 00:29:44;;;;;;;0.75;0.75;;;;;;;;;;5011667;28;20176;-63
2022/02/24 00:32:10;;;;;;;0.50;0.50;;;;;;;;;;5011384;28;20177;-61
2022/02/24 00:34:36;;;;;;;0.60;0.60;;;;;;;;;;5011493;28;20664;-62
2022/02/24 00:37:03;;;;;;;0.53;0.53;;;;;;;;;;5011509;28;20542;-62
2022/02/24 00:39:29;;;;;;;0.50;0.50;;;;;;;;;;5011573;28;20407;-62
2022/02/24 00:41:54;;;;;;;0.50;0.50;;;;;;;;;;5011281;28;20184;-62
2022/02/24 00:44:20;;;;;;;0.50;0.50;;;;;;;;;;5011497;28;20427;-62
2022/02/24 00:46:46;;;;;;;0.50;0.50;;;;;;;;;;5011452;28;20786;-62
2022/02/24 00:49:12;;;;;;;0.60;0.60;;;;;;;;;;5011491;28;20184;-62
2022/02/24 00:51:39;;;;;;;0.70;0.70;;;;;;;;;;5011302;28;20962;-62
2022/02/24 00:54:05;;;;;;;0.60;0.60;;;;;;;;;;5011582;28;20438;-62
2022/02/24 00:56:31;;;;;;;0.50;0.50;;;;;;;;;;5011495;28;20209;-62
2022/02/24 00:58:57;;;;;;;0.47;0.47;;;;;;;;;;5011417;28;20177;-62
2022/02/24 01:01:23;;;;;;;0.50;0.50;;;;;;;;;;5011008;28;20173;-62
2022/02/24 01:03:49;;;;;;;0.60;0.60;;;;;;;;;;5011177;28;20416;-62
2022/02/24 01:06:15;;;;;;;0.63;0.63;;;;;;;;;;5011377;28;20424;-62
2022/02/24 01:08:41;;;;;;;0.50;0.50;;;;;;;;;;5014861;28;20907;-62
2022/02/24 01:11:07;;;;;;;0.50;0.50;;;;;;;;;;5014550;28;20440;-62
2022/02/24 01:13:33;;;;;;;0.60;0.60;;;;;;;;;;5014889;28;20427;-62
2022/02/24 01:15:59;;;;;;;0.70;0.70;;;;;;;;;;5014713;28;20474;-62
2022/02/24 01:18:28;;;;;;;0.50;0.50;;;;;;;;;;5014837;28;20181;-62
2022/02/24 01:20:54;;;;;;;0.50;0.50;;;;;;;;;;5014575;28;20418;-62
2022/02/24 01:23:20;;;;;;;0.50;0.50;;;;;;;;;;5014750;28;20551;-62
2022/02/24 01:25:46;;;;;;;0.40;0.40;;;;;;;;;;5014589;28;20207;-62
2022/02/24 01:28:11;;;;;;;0.40;0.40;;;;;;;;;;4997230;28;20423;-62
2022/02/24 01:30:37;;;;;;;0.50;0.50;;;;;;;;;;5014206;28;20455;-62
2022/02/24 01:33:03;;;;;;;0.50;0.50;;;;;;;;;;5014616;28;20420;-63
2022/02/24 01:35:29;;;;;;;0.50;0.50;;;;;;;;;;5014243;28;20474;-62
2022/02/24 01:37:55;;;;;;;0.50;0.50;;;;;;;;;;5014347;28;20412;-63
2022/02/24 01:40:21;;;;;;;0.53;0.53;;;;;;;;;;5014038;28;20466;-62
2022/02/24 01:42:47;;;;;;;0.50;0.50;;;;;;;;;;5014260;28;20407;-62
2022/02/24 01:45:14;;;;;;;0.50;0.50;;;;;;;;;;5014026;28;20428;-62
2022/02/24 01:47:41;;;;;;;0.50;0.50;;;;;;;;;;5014193;28;20427;-62
2022/02/24 01:50:08;;;;;;;0.50;0.50;;;;;;;;;;5014134;28;21097;-62
2022/02/24 01:52:34;;;;;;;0.40;0.40;;;;;;;;;;5014326;28;20177;-62
2022/02/24 01:55:00;;;;;;;0.50;0.50;;;;;;;;;;5013864;28;20197;-63
2022/02/24 01:57:28;;;;;;;0.60;0.60;;;;;;;;;;5014007;28;20199;-62
2022/02/24 01:59:54;;;;;;;0.40;0.40;;;;;;;;;;5013496;28;20413;-62
2022/02/24 02:02:20;;;;;;;0.50;0.50;;;;;;;;;;5013704;28;20548;-62
2022/02/24 02:04:46;;;;;;;0.50;0.50;;;;;;;;;;5013151;28;20985;-63
2022/02/24 02:07:12;;;;;;;0.50;0.50;;;;;;;;;;5013933;28;20416;-62
2022/02/24 02:09:38;;;;;;;0.50;0.50;;;;;;;;;;5013662;28;20419;-62
2022/02/24 02:12:04;;;;;;;0.60;0.60;;;;;;;;;;5013488;28;20173;-62
2022/02/24 02:14:31;;;;;;;0.50;0.50;;;;;;;;;;5013560;28;20199;-62
2022/02/24 02:16:59;;;;;;;0.50;0.50;;;;;;;;;;5013457;28;20231;-62
2022/02/24 02:19:25;;;;;;;0.50;0.50;;;;;;;;;;5013273;28;20170;-63
2022/02/24 02:21:51;;;;;;;0.50;0.50;;;;;;;;;;5013285;28;20176;-62
2022/02/24 02:24:17;;;;;;;0.50;0.50;;;;;;;;;;5013358;28;20204;-62
2022/02/24 02:26:43;;;;;;;0.50;0.50;;;;;;;;;;5013421;28;20181;-62
2022/02/24 02:29:11;;;;;;;0.50;0.50;;;;;;;;;;5013250;28;20182;-62
2022/02/24 02:31:37;;;;;;;0.50;0.50;;;;;;;;;;5013154;28;20560;-62
2022/02/24 02:34:07;;;;;;;0.60;0.60;;;;;;;;;;5013225;28;20181;-62
2022/02/24 02:36:33;;;;;;;0.50;0.50;;;;;;;;;;5013124;28;20525;-62
2022/02/24 02:39:00;;;;;;;0.40;0.40;;;;;;;;;;5013179;28;20200;-62
2022/02/24 02:41:33;;;;;;;0.50;0.50;;;;;;;;;;5012986;28;20178;-62
2022/02/24 02:43:59;;;;;;;0.60;0.60;;;;;;;;;;5012934;28;20216;-63
2022/02/24 02:46:25;;;;;;;0.50;0.50;;;;;;;;;;5013074;28;20185;-63
2022/02/24 02:48:52;;;;;;;0.50;0.50;;;;;;;;;;5012983;28;20200;-63
2022/02/24 02:51:18;;;;;;;0.40;0.40;;;;;;;;;;5012797;28;20201;-63
2022/02/24 02:53:44;;;;;;;0.50;0.50;;;;;;;;;;5012883;28;20592;-63
2022/02/24 02:56:10;;;;;;;0.50;0.50;;;;;;;;;;5013104;28;20237;-63
2022/02/24 02:58:36;;;;;;;0.50;0.50;;;;;;;;;;5014050;28;20177;-63
2022/02/24 03:01:02;;;;;;;0.43;0.43;;;;;;;;;;5012641;28;20169;-63
2022/02/24 03:03:28;;;;;;;0.40;0.40;;;;;;;;;;5012756;28;20168;-63
2022/02/24 03:05:55;;;;;;;0.60;0.60;;;;;;;;;;5065199;23;20229;-62
2022/02/24 03:08:21;;;;;;;0.40;0.40;;;;;;;;;;5012202;28;20451;-61
2022/02/24 03:10:47;;;;;;;0.50;0.50;;;;;;;;;;5012388;28;20272;-60
2022/02/24 03:13:17;;;;;;;0.50;0.50;;;;;;;;;;5011130;28;20176;-60
2022/02/24 03:15:43;;;;;;;0.50;0.50;;;;;;;;;;5012155;28;20206;-61
2022/02/24 03:18:09;;;;;;;0.50;0.50;;;;;;;;;;5012387;28;20173;-61
2022/02/24 03:20:35;;;;;;;0.50;0.50;;;;;;;;;;5012153;28;20420;-60
2022/02/24 03:23:02;;;;;;;0.60;0.60;;;;;;;;;;5012288;28;20179;-62
2022/02/24 03:25:28;;;;;;;0.60;0.60;;;;;;;;;;5012658;28;20203;-63
2022/02/24 03:27:54;;;;;;;0.50;0.50;;;;;;;;;;5012298;28;20231;-62
2022/02/24 03:30:20;;;;;;;0.45;0.45;;;;;;;;;;5011371;28;20644;-63
2022/02/24 03:32:46;;;;;;;0.50;0.50;;;;;;;;;;5012202;28;20793;-62
2022/02/24 03:35:13;;;;;;;0.50;0.50;;;;;;;;;;5011937;28;20216;-62
2022/02/24 03:37:39;;;;;;;0.50;0.50;;;;;;;;;;5011982;28;20181;-63
2022/02/24 03:40:06;;;;;;;0.50;0.50;;;;;;;;;;5011947;28;20204;-62
2022/02/24 03:42:32;;;;;;;0.50;0.50;;;;;;;;;;5012468;28;20174;-62
2022/02/24 03:44:58;;;;;;;0.50;0.50;;;;;;;;;;5012903;28;20279;-62
2022/02/24 03:47:24;;;;;;;0.45;0.45;;;;;;;;;;5012372;28;20174;-62
2022/02/24 03:49:50;;;;;;;0.50;0.50;;;;;;;;;;5012266;28;20181;-62
2022/02/24 03:52:16;;;;;;;0.50;0.50;;;;;;;;;;5011927;28;20170;-62
2022/02/24 03:54:43;;;;;;;0.50;0.50;;;;;;;;;;5011999;28;20448;-62
2022/02/24 03:57:09;;;;;;;0.50;0.50;;;;;;;;;;5011736;28;20299;-62
2022/02/24 03:59:35;;;;;;;0.50;0.50;;;;;;;;;;5011893;28;20583;-62
2022/02/24 04:02:01;;;;;;;0.50;0.50;;;;;;;;;;5011535;28;20239;-62
2022/02/24 04:04:27;;;;;;;0.50;0.50;;;;;;;;;;5011619;28;20970;-62
2022/02/24 04:06:52;;;;;;;0.50;0.50;;;;;;;;;;5011718;28;20424;-62
2022/02/24 04:09:19;;;;;;;0.60;0.60;;;;;;;;;;5012177;28;20884;-62
2022/02/24 04:11:45;;;;;;;0.50;0.50;;;;;;;;;;5011577;28;20419;-62
2022/02/24 04:14:11;;;;;;;0.50;0.50;;;;;;;;;;5011564;28;20649;-62
2022/02/24 04:16:36;;;;;;;0.50;0.50;;;;;;;;;;5011660;28;20456;-62
2022/02/24 04:19:02;;;;;;;0.40;0.40;;;;;;;;;;5011638;28;20479;-62
2022/02/24 04:21:28;;;;;;;0.50;0.50;;;;;;;;;;5011231;28;20412;-62
2022/02/24 04:23:54;;;;;;;0.50;0.50;;;;;;;;;;5011671;28;20824;-62
2022/02/24 04:26:20;;;;;;;0.50;0.50;;;;;;;;;;5011480;28;20316;-62
2022/02/24 04:28:46;;;;;;;0.50;0.50;;;;;;;;;;5011673;28;20419;-62
2022/02/24 04:31:12;;;;;;;0.60;0.60;;;;;;;;;;5011281;28;20411;-62
2022/02/24 04:33:38;;;;;;;0.50;0.50;;;;;;;;;;5011579;28;20411;-62
2022/02/24 04:36:04;;;;;;;0.47;0.47;;;;;;;;;;5011223;28;20223;-62
2022/02/24 04:38:30;;;;;;;0.50;0.50;;;;;;;;;;5011427;28;20416;-62
2022/02/24 04:40:56;;;;;;;0.50;0.50;;;;;;;;;;5012312;28;20242;-62
2022/02/24 04:43:22;;;;;;;0.60;0.60;;;;;;;;;;5015220;28;21016;-62
2022/02/24 04:45:48;;;;;;;0.50;0.50;;;;;;;;;;5014587;28;20995;-62
2022/02/24 04:48:14;;;;;;;0.50;0.50;;;;;;;;;;5014873;28;20407;-62
2022/02/24 04:50:40;;;;;;;0.40;0.40;;;;;;;;;;5014742;28;20447;-61
2022/02/24 04:53:06;;;;;;;0.60;0.60;;;;;;;;;;5015165;28;20830;-62
2022/02/24 04:55:32;;;;;;;0.50;0.50;;;;;;;;;;5015025;28;20502;-62
2022/02/24 04:57:58;;;;;;;0.60;0.60;;;;;;;;;;5015907;28;20184;-62
2022/02/24 05:00:24;;;;;;;0.50;0.50;;;;;;;;;;5014640;28;20457;-62
2022/02/24 05:02:50;;;;;;;0.50;0.50;;;;;;;;;;5013599;28;20423;-62
2022/02/24 05:05:16;;;;;;;0.50;0.50;;;;;;;;;;5014553;28;21013;-61
2022/02/24 05:07:42;;;;;;;0.50;0.50;;;;;;;;;;5014344;28;20259;-62
2022/02/24 05:10:08;;;;;;;0.50;0.50;;;;;;;;;;5014212;28;20938;-62
2022/02/24 05:12:34;;;;;;;0.60;0.60;;;;;;;;;;5014486;28;20523;-62
2022/02/24 05:15:00;;;;;;;0.50;0.50;;;;;;;;;;5014654;28;20224;-62
2022/02/24 05:17:26;;;;;;;0.40;0.40;;;;;;;;;;5014468;28;20919;-62
2022/02/24 05:19:52;;;;;;;0.60;0.60;;;;;;;;;;5014497;28;20411;-62
2022/02/24 05:22:18;;;;;;;0.40;0.40;;;;;;;;;;5014066;28;20416;-61
2022/02/24 05:24:44;;;;;;;0.50;0.50;;;;;;;;;;5014753;28;20806;-61
2022/02/24 05:27:10;;;;;;;0.60;0.60;;;;;;;;;;5014562;28;20423;-62
2022/02/24 05:29:36;;;;;;;0.50;0.50;;;;;;;;;;5014608;28;20413;-61
2022/02/24 05:32:02;;;;;;;0.50;0.50;;;;;;;;;;5014151;28;20422;-62
2022/02/24 05:34:29;;;;;;;0.50;0.50;;;;;;;;;;5014632;28;20736;-62
2022/02/24 05:36:55;;;;;;;0.57;0.57;;;;;;;;;;5015372;28;20197;-63
2022/02/24 05:39:21;;;;;;;0.50;0.50;;;;;;;;;;5015075;28;20279;-62
2022/02/24 05:41:47;;;;;;;0.50;0.50;;;;;;;;;;5013419;28;20180;-62
2022/02/24 05:44:13;;;;;;;0.40;0.40;;;;;;;;;;5014789;28;20181;-62
2022/02/24 05:46:39;;;;;;;0.50;0.50;;;;;;;;;;5014737;28;20419;-62
2022/02/24 05:49:05;;;;;;;0.50;0.50;;;;;;;;;;5014463;28;20511;-62
2022/02/24 05:51:31;;;;;;;0.50;0.50;;;;;;;;;;5013856;28;20423;-62
2022/02/24 05:53:57;;;;;;;0.60;0.60;;;;;;;;;;5013515;28;20415;-62
2022/02/24 05:56:23;;;;;;;0.57;0.57;;;;;;;;;;5013420;28;20217;-61
2022/02/24 05:58:49;;;;;;;0.50;0.50;;;;;;;;;;5013987;28;20473;-61
2022/02/24 06:01:15;;;;;;;0.50;0.50;;;;;;;;;;5013480;28;20422;-61
2022/02/24 06:03:41;;;;;;;0.50;0.50;;;;;;;;;;5013760;28;20250;-61
2022/02/24 06:06:07;;;;;;;0.50;0.50;;;;;;;;;;5013884;28;20455;-61
2022/02/24 06:08:33;;;;;;;0.50;0.50;;;;;;;;;;5013870;28;20411;-61
2022/02/24 06:10:59;;;;;;;0.50;0.50;;;;;;;;;;5013489;28;21061;-60
2022/02/24 06:13:26;;;;;;;0.60;0.60;;;;;;;;;;5013719;28;20994;-61
2022/02/24 06:15:52;;;;;;;0.50;0.50;;;;;;;;;;5013404;28;20207;-62
2022/02/24 06:18:18;;;;;;;0.50;0.50;;;;;;;;;;5013540;28;20573;-61
2022/02/24 06:20:46;;;;;;;0.50;0.50;;;;;;;;;;5013234;28;20461;-62
2022/02/24 06:23:12;;;;;;;0.60;0.60;;;;;;;;;;5012055;28;20577;-62
2022/02/24 06:25:38;;;;;;;0.50;0.50;;;;;;;;;;5013369;28;20244;-62
2022/02/24 06:28:04;;;;;;;0.60;0.60;;;;;;;;;;5013338;28;20411;-62
2022/02/24 06:30:30;;;;;;;0.60;0.60;;;;;;;;;;5012921;28;20419;-63
2022/02/24 06:32:56;;;;;;;0.50;0.50;;;;;;;;;;5012492;28;20188;-60
2022/02/24 06:35:22;;;;;;;0.50;0.50;;;;;;;;;;5012516;28;20463;-62
2022/02/24 06:37:48;;;;;;;0.50;0.50;;;;;;;;;;5013567;28;20538;-61
2022/02/24 06:40:14;;;;;;;0.60;0.60;;;;;;;;;;5012862;28;20518;-61
2022/02/24 06:42:40;;;;;;;0.40;0.40;;;;;;;;;;5014216;28;20401;-62
2022/02/24 06:45:07;;;;;;;0.50;0.50;;;;;;;;;;5012567;28;20749;-61
2022/02/24 06:47:35;;;;;;;0.60;0.60;;;;;;;;;;5012682;28;20596;-60
2022/02/24 06:50:01;;;;;;;0.50;0.50;;;;;;;;;;5012489;28;20173;-62
2022/02/24 06:52:27;;;;;;;0.50;0.50;;;;;;;;;;5012118;28;20180;-61
2022/02/24 06:54:53;;;;;;;0.50;0.50;;;;;;;;;;5012304;28;20452;-61
2022/02/24 06:57:19;;;;;;;0.50;0.50;;;;;;;;;;5011824;28;20216;-61
2022/02/24 06:59:45;;;;;;;0.40;0.40;;;;;;;;;;5028266;28;20430;-62
2022/02/24 07:02:11;;;;;;;0.50;0.50;;;;;;;;;;5031092;28;20447;-62
2022/02/24 07:04:37;;;;;;;0.50;0.50;;;;;;;;;;5023885;28;20452;-62
2022/02/24 07:07:03;;;;;;;0.50;0.50;;;;;;;;;;5012487;28;20434;-61
2022/02/24 07:09:31;;;;;;;0.60;0.60;;;;;;;;;;5011519;28;20446;-61
2022/02/24 07:11:57;;;;;;;0.47;0.47;;;;;;;;;;5012163;28;20319;-61
2022/02/24 07:14:23;;;;;;;0.50;0.50;;;;;;;;;;5012308;28;20212;-61
2022/02/24 07:16:49;;;;;;;0.47;0.47;;;;;;;;;;5012163;28;20317;-61
2022/02/24 07:19:15;;;;;;;0.50;0.50;;;;;;;;;;5012276;28;20413;-61
2022/02/24 07:21:41;;;;;;;0.50;0.50;;;;;;;;;;5011539;28;20200;-61
2022/02/24 07:24:08;;;;;;;0.50;0.50;;;;;;;;;;5015506;28;20184;-61
2022/02/24 07:26:34;;;;;;;0.50;0.50;;;;;;;;;;5025285;28;20255;-61
2022/02/24 07:29:00;;;;;;;0.50;0.50;;;;;;;;;;5010908;28;20186;-61
2022/02/24 07:31:26;;;;;;;0.50;0.50;;;;;;;;;;5011947;28;20451;-61
2022/02/24 07:33:52;;;;;;;0.50;0.50;;;;;;;;;;5010705;28;20232;-61
2022/02/24 07:36:18;;;;;;;0.40;0.40;;;;;;;;;;5011631;28;20493;-61
2022/02/24 07:38:44;;;;;;;0.50;0.50;;;;;;;;;;5012007;28;20180;-61
2022/02/24 07:41:11;;;;;;;0.50;0.50;;;;;;;;;;5012247;28;20495;-61
2022/02/24 07:43:37;;;;;;;0.50;0.50;;;;;;;;;;5011861;28;20176;-60
2022/02/24 07:46:03;;;;;;;0.50;0.50;;;;;;;;;;5011985;28;20718;-61
2022/02/24 07:48:29;;;;;;;0.60;0.60;;;;;;;;;;5011658;28;20186;-61
2022/02/24 07:50:56;;;;;;;0.50;0.50;;;;;;;;;;5011078;28;20268;-60
2022/02/24 07:53:22;;;;;;;0.40;0.40;;;;;;;;;;5011893;28;20224;-60
2022/02/24 07:55:48;;;;;;;0.50;0.50;;;;;;;;;;5011547;28;20208;-61
2022/02/24 07:58:15;;;;;;;0.50;0.50;;;;;;;;;;5011704;28;20184;-61
2022/02/24 08:00:41;;;;;;;0.50;0.50;;;;;;;;;;5010959;28;20174;-61
2022/02/24 08:03:07;;;;;;;0.50;0.50;;;;;;;;;;5011573;28;20184;-61
2022/02/24 08:05:33;;;;;;;0.50;0.50;;;;;;;;;;5011580;28;20692;-61
2022/02/24 08:07:59;;;;;;;0.50;0.50;;;;;;;;;;5012005;28;20408;-60
2022/02/24 08:10:25;;;;;;;0.50;0.50;;;;;;;;;;5011896;28;20548;-61
2022/02/24 08:12:51;;;;;;;0.50;0.50;;;;;;;;;;5011921;28;20419;-61
2022/02/24 08:15:19;;;;;;;0.50;0.50;;;;;;;;;;5011823;28;20197;-61
2022/02/24 08:17:45;;;;;;;0.50;0.50;;;;;;;;;;5015746;28;20456;-61
2022/02/24 08:20:11;;;;;;;0.40;0.40;;;;;;;;;;5015598;28;20263;-61
2022/02/24 08:22:38;;;;;;;0.60;0.60;;;;;;;;;;5015655;28;20181;-61
2022/02/24 08:25:05;;;;;;;0.60;0.60;;;;;;;;;;5015248;28;20571;-61
2022/02/24 08:27:31;;;;;;;0.50;0.50;;;;;;;;;;5015521;28;20227;-60
2022/02/24 08:30:00;;;;;;;0.50;0.50;;;;;;;;;;5014365;28;20170;-61
2022/02/24 08:32:26;;;;;;;0.50;0.50;;;;;;;;;;5015226;28;20165;-61
2022/02/24 08:34:52;;;;;;;0.50;0.50;;;;;;;;;;5015261;28;20680;-61
2022/02/24 08:37:18;;;;;;;0.50;0.50;;;;;;;;;;5015310;28;20328;-61
2022/02/24 08:39:44;;;;;;;0.50;0.50;;;;;;;;;;5015234;28;20491;-60
2022/02/24 08:42:10;;;;;;;0.40;0.40;;;;;;;;;;5015374;28;20428;-61
2022/02/24 08:44:36;;;;;;;0.50;0.50;;;;;;;;;;5015128;28;20478;-61
2022/02/24 08:47:02;;;;;;;0.50;0.50;;;;;;;;;;5015100;28;20499;-61
2022/02/24 08:49:28;;;;;;;0.40;0.40;;;;;;;;;;5015059;28;20264;-61
2022/02/24 08:51:54;;;;;;;0.50;0.50;;;;;;;;;;5014848;28;20791;-60
2022/02/24 08:54:20;;;;;;;0.50;0.50;;;;;;;;;;5014867;28;20475;-61
2022/02/24 08:56:46;;;;;;;0.50;0.50;;;;;;;;;;5014874;28;20470;-61
2022/02/24 08:59:11;;;;;;;0.40;0.40;;;;;;;;;;5014927;28;20467;-61
2022/02/24 09:01:37;;;;;;;0.40;0.40;;;;;;;;;;5014781;28;20401;-61
2022/02/24 09:04:03;;;;;;;0.50;0.50;;;;;;;;;;5014922;28;20405;-61
2022/02/24 09:06:29;;;;;;;0.40;0.40;;;;;;;;;;5015558;23;20509;-60
2022/02/24 09:08:55;;;;;;;0.40;0.40;;;;;;;;;;4978022;28;20178;-60
2022/02/24 09:11:24;;;;;;;0.40;0.40;;;;;;;;;;4995489;28;20491;-59
2022/02/24 09:13:50;;;;;;;0.40;0.40;;;;;;;;;;4996586;28;20409;-60
2022/02/24 09:16:16;;;;;;;0.40;0.40;;;;;;;;;;4995173;28;20214;-60
2022/02/24 09:18:42;;;;;;;0.40;0.40;;;;;;;;;;4995255;28;20434;-60
2022/02/24 09:21:08;;;;;;;0.40;0.40;;;;;;;;;;4977690;28;20483;-60
2022/02/24 09:23:34;;;;;;;0.40;0.40;;;;;;;;;;4994979;28;20384;-60
2022/02/24 09:26:01;;;;;;;0.40;0.40;;;;;;;;;;4994957;28;20470;-61
2022/02/24 09:28:27;;;;;;;0.40;0.40;;;;;;;;;;4994022;28;20265;-60
2022/02/24 09:30:53;;;;;;;0.40;0.40;;;;;;;;;;4994702;28;20350;-60
2022/02/24 09:33:20;;;;;;;0.40;0.40;;;;;;;;;;4995189;28;20184;-60
2022/02/24 09:35:45;;;;;;;0.40;0.40;;;;;;;;;;4994835;28;20203;-61
2022/02/24 09:38:11;;;;;;;0.40;0.40;;;;;;;;;;4994893;28;20225;-60
2022/02/24 09:40:38;;;;;;;0.40;0.40;;;;;;;;;;4994694;28;20398;-60
2022/02/24 09:43:04;;;;;;;0.50;0.50;;;;;;;;;;4994945;28;20405;-61
2022/02/24 09:45:30;;;;;;;0.40;0.40;;;;;;;;;;4977259;28;20570;-61
2022/02/24 09:47:56;;;;;;;0.50;0.50;;;;;;;;;;4994785;28;20171;-60
2022/02/24 09:50:23;;;;;;;0.40;0.40;;;;;;;;;;4994436;28;20416;-61
2022/02/24 09:52:50;;;;;;;0.40;0.40;;;;;;;;;;4994747;28;20190;-60
2022/02/24 09:55:16;;;;;;;0.40;0.40;;;;;;;;;;4994538;28;20213;-61
2022/02/24 09:57:41;;;;;;;0.50;0.50;;;;;;;;;;4994603;28;20186;-60
2022/02/24 10:00:08;;;;;;;0.40;0.40;;;;;;;;;;4994336;28;20418;-61
2022/02/24 10:02:34;;;;;;;0.40;0.40;;;;;;;;;;4994505;28;20496;-61
2022/02/24 10:05:04;;;;;;;0.40;0.40;;;;;;;;;;4994203;28;20279;-60
2022/02/24 10:07:30;;;;;;;0.40;0.40;;;;;;;;;;4977007;28;20233;-61
2022/02/24 10:09:56;;;;;;;0.47;0.47;;;;;;;;;;4994359;28;20416;-61
2022/02/24 10:12:22;;;;;;;0.40;0.40;;;;;;;;;;4994038;28;20770;-61
2022/02/24 10:14:48;;;;;;;0.50;0.50;;;;;;;;;;4977036;28;20417;-61
2022/02/24 10:17:16;;;;;;;0.40;0.40;;;;;;;;;;4994236;28;20552;-61
2022/02/24 10:19:46;;;;;;;0.40;0.40;;;;;;;;;;4994043;28;20414;-61
2022/02/24 10:22:24;;;;;;;0.40;0.40;;;;;;;;;;4994043;28;20533;-61
2022/02/24 10:24:58;;;;;;;0.30;0.30;;;;;;;;;;4994096;28;20380;-61
2022/02/24 10:27:25;;;;;;;0.33;0.33;;;;;;;;;;4994031;28;20456;-61
2022/02/24 10:30:04;;;;;;;0.30;0.30;;;;;;;;;;4993968;28;20816;-61
2022/02/24 10:32:38;;;;;;;0.30;0.30;;;;;;;;;;4993763;28;20416;-62
2022/02/24 10:35:20;;;;;;;0.30;0.30;;;;;;;;;;4993835;28;21059;-61
2022/02/24 10:37:52;;;;;;;0.30;0.30;;;;;;;;;;4993954;28;20389;-61
2022/02/24 10:40:18;;;;;;;0.30;0.30;;;;;;;;;;4993404;28;20405;-61
2022/02/24 10:42:44;;;;;;;0.40;0.40;;;;;;;;;;4993685;28;20750;-61
2022/02/24 10:45:17;;;;;;;0.40;0.40;;;;;;;;;;4993822;28;20836;-61
2022/02/24 10:47:59;;;;;;;0.30;0.30;;;;;;;;;;4994053;28;20431;-61
2022/02/24 10:50:45;;;;;;;0.40;0.40;;;;;;;;;;4993490;28;20409;-61
2022/02/24 10:53:11;;;;;;;0.40;0.40;;;;;;;;;;4976066;28;20402;-60
2022/02/24 10:56:12;;;;;;;0.40;0.40;;;;;;;;;;4992983;28;21030;-61
2022/02/24 10:58:45;;;;;;;0.40;0.40;;;;;;;;;;4933128;29;20435;-61
2022/02/24 11:01:13;;;;;;;0.40;0.40;;;;;;;;;;4979671;28;20476;-61
2022/02/24 11:03:40;;;;;;;0.40;0.40;;;;;;;;;;4993200;28;20951;-61
2022/02/24 11:06:07;;;;;;;0.40;0.40;;;;;;;;;;4993129;28;20460;-61
2022/02/24 11:08:34;;;;;;;0.40;0.40;;;;;;;;;;4993272;28;20416;-61
2022/02/24 11:11:00;;;;;;;0.40;0.40;;;;;;;;;;4993113;28;20418;-61
2022/02/24 11:13:28;;;;;;;0.40;0.40;;;;;;;;;;4993272;28;20492;-61
2022/02/24 11:15:54;;;;;;;0.40;0.40;;;;;;;;;;4992960;28;20465;-61
2022/02/24 11:18:21;;;;;;;0.30;0.30;;;;;;;;;;4993163;28;20421;-61
2022/02/24 11:20:47;;;;;;;0.40;0.40;;;;;;;;;;4992876;28;20406;-61
2022/02/24 11:23:14;;;;;;;0.30;0.30;;;;;;;;;;4993196;28;20414;-61
2022/02/24 11:25:49;;;;;;;0.30;0.30;;;;;;;;;;4993188;28;20411;-61
2022/02/24 11:28:17;;;;;;;0.30;0.30;;;;;;;;;;4992940;28;20409;-59
2022/02/24 11:30:46;;;;;;;0.30;0.30;;;;;;;;;;4992754;28;20416;-61
2022/02/24 11:33:14;;;;;;;0.30;0.30;;;;;;;;;;4993081;28;20452;-61
2022/02/24 11:35:40;;;;;;;0.40;0.40;;;;;;;;;;4992816;28;20442;-61
2022/02/24 11:38:05;;;;;;;0.30;0.30;;;;;;;;;;4993000;28;20406;-62
2022/02/24 11:40:36;;;;;;;0.30;0.30;;;;;;;;;;4992781;28;20444;-61
2022/02/24 11:43:02;;;;;;;0.30;0.30;;;;;;;;;;4992871;28;20410;-62
2022/02/24 11:45:30;;;;;;;0.40;0.40;;;;;;;;;;4992859;28;20959;-62
2022/02/24 11:48:00;;;;;;;0.40;0.40;;;;;;;;;;4992661;28;20743;-61
2022/02/24 11:50:49;;;;;;;0.40;0.40;;;;;;;;;;4991905;28;20415;-61
2022/02/24 11:53:27;;;;;;;0.30;0.30;;;;;;;;;;4985176;28;20472;-61
2022/02/24 11:55:57;;;;;;;0.40;0.40;;;;;;;;;;4992356;28;20461;-60
2022/02/24 11:58:29;;;;;;;0.40;0.40;;;;;;;;;;4992742;28;20785;-60
2022/02/24 12:01:08;;;;;;;0.40;0.40;;;;;;;;;;4992420;28;20500;-59
2022/02/24 12:03:46;;;;;;;0.30;0.30;;;;;;;;;;4992628;28;20413;-59
2022/02/24 12:06:13;;;;;;;0.40;0.40;;;;;;;;;;4992459;28;20456;-62
2022/02/24 12:08:57;;;;;;;0.40;0.40;;;;;;;;;;4992804;28;20920;-59
2022/02/24 12:11:30;;;;;;;0.40;0.40;;;;;;;;;;4993072;28;20401;-58
2022/02/24 12:13:56;;;;;;;0.40;0.40;;;;;;;;;;4992973;28;20949;-59
2022/02/24 12:16:25;;;;;;;0.40;0.40;;;;;;;;;;4992408;28;20470;-59
2022/02/24 12:18:51;;;;;;;0.40;0.40;;;;;;;;;;4992370;28;20420;-59
2022/02/24 12:21:34;;;;;;;0.40;0.40;;;;;;;;;;4992307;28;20459;-56
2022/02/24 12:24:01;;;;;;;0.40;0.40;;;;;;;;;;4992205;28;20416;-61
2022/02/24 12:26:37;;;;;;;0.40;0.40;;;;;;;;;;4991932;28;20882;-61
2022/02/24 12:29:19;;;;;;;0.40;0.40;;;;;;;;;;4992419;28;20446;-59
2022/02/24 12:31:47;;;;;;;0.40;0.40;;;;;;;;;;4992392;28;20865;-62
2022/02/24 12:34:13;;;;;;;0.40;0.40;;;;;;;;;;4992464;28;20440;-62
2022/02/24 12:36:39;;;;;;;0.40;0.40;;;;;;;;;;4992043;28;20849;-62
2022/02/24 12:39:05;;;;;;;0.40;0.40;;;;;;;;;;4991279;28;20179;-61
2022/02/24 12:41:31;;;;;;;0.40;0.40;;;;;;;;;;4991637;28;20418;-62
2022/02/24 12:43:57;;;;;;;0.40;0.40;;;;;;;;;;4991927;28;20419;-62
2022/02/24 12:46:24;;;;;;;0.40;0.40;;;;;;;;;;4992070;28;20436;-62
2022/02/24 12:48:50;;;;;;;0.40;0.40;;;;;;;;;;4992089;28;20504;-62
2022/02/24 12:51:23;;;;;;;0.40;0.40;;;;;;;;;;4991791;28;20248;-62
2022/02/24 12:53:49;;;;;;;0.30;0.30;;;;;;;;;;4992072;28;20213;-62
2022/02/24 12:56:19;;;;;;;0.40;0.40;;;;;;;;;;4991750;28;20461;-62
2022/02/24 12:58:45;;;;;;;0.40;0.40;;;;;;;;;;4992097;28;20507;-61
2022/02/24 13:01:14;;;;;;;0.40;0.40;;;;;;;;;;4991688;28;20327;-62
2022/02/24 13:03:40;;;;;;;0.40;0.40;;;;;;;;;;4995657;28;20417;-61
2022/02/24 13:06:06;;;;;;;0.40;0.40;;;;;;;;;;4995410;28;20532;-61
2022/02/24 13:11:19;;;;;;;0.40;0.40;;;;;;;;;;4995377;28;20462;-61
2022/02/24 13:13:45;;;;;;;0.40;0.40;;;;;;;;;;4995317;28;20178;-63
2022/02/24 13:16:15;;;;;;;0.40;0.40;;;;;;;;;;4995105;28;20464;-61
2022/02/24 13:18:43;;;;;;;0.40;0.40;;;;;;;;;;5010308;28;20421;-62
2022/02/24 13:21:09;;;;;;;0.40;0.40;;;;;;;;;;4995094;28;20184;-59
2022/02/24 13:23:36;;;;;;;0.40;0.40;;;;;;;;;;4995038;28;20197;-62
2022/02/24 13:26:02;;;;;;;0.40;0.40;;;;;;;;;;4994795;28;20430;-62
2022/02/24 13:28:28;;;;;;;0.40;0.40;;;;;;;;;;4995215;28;20183;-63
2022/02/24 13:30:55;;;;;;;0.50;0.50;;;;;;;;;;4994456;28;20414;-61
2022/02/24 13:33:21;;;;;;;0.40;0.40;;;;;;;;;;4994973;28;20885;-61
2022/02/24 13:35:51;;;;;;;0.50;0.50;;;;;;;;;;5010217;28;20828;-62
2022/02/24 13:38:17;;;;;;;0.40;0.40;;;;;;;;;;4994857;28;20412;-62
2022/02/24 13:40:50;;;;;;;0.40;0.40;;;;;;;;;;4994843;28;20184;-62
2022/02/24 13:43:17;;;;;;;0.40;0.40;;;;;;;;;;4995025;28;20410;-62
2022/02/24 13:45:43;;;;;;;0.40;0.40;;;;;;;;;;4994903;28;20203;-60
2022/02/24 13:48:09;;;;;;;0.40;0.40;;;;;;;;;;4994730;28;20207;-59
2022/02/24 13:50:42;;;;;;;0.40;0.40;;;;;;;;;;4994371;28;20496;-61
2022/02/24 13:53:14;;;;;;;0.40;0.40;;;;;;;;;;4994657;28;20409;-62
2022/02/24 13:55:49;;;;;;;0.40;0.40;;;;;;;;;;4994600;28;20210;-62
2022/02/24 13:58:15;;;;;;;0.40;0.40;;;;;;;;;;4994685;28;20537;-61
2022/02/24 14:00:43;;;;;;;0.30;0.30;;;;;;;;;;4993728;28;20417;-62
2022/02/24 14:03:12;;;;;;;0.30;0.30;;;;;;;;;;4994438;28;20421;-61
2022/02/24 14:05:38;;;;;;;0.40;0.40;;;;;;;;;;5010298;28;20465;-61
2022/02/24 14:08:04;;;;;;;0.40;0.40;;;;;;;;;;5013878;28;20173;-61
2022/02/24 14:10:31;;;;;;;0.40;0.40;;;;;;;;;;5013591;28;20205;-61
2022/02/24 14:13:00;;;;;;;0.40;0.40;;;;;;;;;;5013738;28;20196;-59
2022/02/24 14:15:26;;;;;;;0.50;0.50;;;;;;;;;;5013002;28;20228;-59
2022/02/24 14:17:52;;;;;;;0.50;0.50;;;;;;;;;;5013843;28;20400;-62
2022/02/24 14:20:22;;;;;;;0.43;0.43;;;;;;;;;;5013596;28;20456;-61
2022/02/24 14:22:48;;;;;;;0.40;0.40;;;;;;;;;;5013637;28;20428;-61
2022/02/24 14:25:14;;;;;;;0.50;0.50;;;;;;;;;;5013080;28;20816;-61
2022/02/24 14:27:40;;;;;;;0.40;0.40;;;;;;;;;;5013228;28;20478;-61
2022/02/24 14:30:06;;;;;;;0.40;0.40;;;;;;;;;;5013366;28;20967;-60
2022/02/24 14:32:32;;;;;;;0.40;0.40;;;;;;;;;;5013337;28;20269;-61
2022/02/24 14:34:58;;;;;;;0.40;0.40;;;;;;;;;;5013255;28;20704;-61
2022/02/24 14:37:24;;;;;;;0.40;0.40;;;;;;;;;;5012495;28;20951;-62
2022/02/24 14:39:50;;;;;;;0.40;0.40;;;;;;;;;;5012912;28;20452;-61
2022/02/24 14:42:16;;;;;;;0.40;0.40;;;;;;;;;;5012889;28;20454;-61
2022/02/24 14:44:42;;;;;;;0.50;0.50;;;;;;;;;;5013040;28;20412;-60